createdAt,value
2018-03-23T00:00:43.408Z,0.27
2018-03-23T00:03:11.032Z,0.31
2018-03-23T00:05:38.608Z,0.17
2018-03-23T00:08:06.201Z,0.15
2018-03-23T00:10:33.834Z,0.28
2018-03-23T00:13:01.431Z,0.37
2018-03-23T00:15:29.023Z,0.36
2018-03-23T00:17:56.663Z,0.39
2018-03-23T00:20:24.247Z,0.33
2018-03-23T00:22:51.838Z,0.28
2018-03-23T00:25:19.465Z,0.18
2018-03-23T00:27:47.053Z,0.16
2018-03-23T00:30:14.642Z,0.19
2018-03-23T00:32:42.261Z,0.24
2018-03-23T00:35:09.851Z,0.28
2018-03-23T00:37:37.448Z,0.35
2018-03-23T00:40:05.084Z,0.40
2018-03-23T00:42:32.684Z,0.42
2018-03-23T00:45:00.274Z,0.38
2018-03-23T00:47:27.905Z,0.47
2018-03-23T00:49:55.482Z,0.52
2018-03-23T00:52:23.069Z,0.58
2018-03-23T00:54:50.702Z,0.59
2018-03-23T00:57:18.330Z,0.63
2018-03-23T00:59:45.910Z,0.64
2018-03-23T01:02:13.542Z,0.65
2018-03-23T01:04:41.126Z,0.61
2018-03-23T01:07:08.719Z,0.55
2018-03-23T01:09:36.384Z,0.56
2018-03-23T01:12:03.967Z,0.53
2018-03-23T01:14:31.559Z,0.53
2018-03-23T01:16:59.223Z,0.50
2018-03-23T01:19:26.822Z,0.53
2018-03-23T01:21:54.407Z,0.52
2018-03-23T01:24:22.028Z,0.58
2018-03-23T01:26:49.616Z,0.62
2018-03-23T01:29:17.211Z,0.70
2018-03-23T01:31:44.835Z,0.78
2018-03-23T01:34:12.419Z,0.77
2018-03-23T01:36:40.010Z,0.79
2018-03-23T01:39:07.644Z,0.84
2018-03-23T01:41:35.235Z,0.82
2018-03-23T01:44:02.849Z,0.77
2018-03-23T01:46:30.469Z,0.64
2018-03-23T01:48:58.053Z,0.65
2018-03-23T01:51:25.649Z,0.71
2018-03-23T01:53:53.269Z,0.63
2018-03-23T01:56:20.857Z,0.68
2018-03-23T01:58:48.458Z,0.62
2018-03-23T02:01:16.089Z,0.58
2018-03-23T02:03:43.684Z,0.58
2018-03-23T02:06:11.271Z,0.65
2018-03-23T02:08:38.890Z,0.73
2018-03-23T02:11:06.473Z,0.71
2018-03-23T02:13:34.057Z,0.66
2018-03-23T02:16:01.672Z,0.73
2018-03-23T02:18:29.266Z,0.77
2018-03-23T02:20:56.856Z,0.66
2018-03-23T02:23:24.486Z,0.89
2018-03-23T02:25:52.068Z,0.91
2018-03-23T02:28:19.659Z,0.91
2018-03-23T02:30:47.300Z,0.89
2018-03-23T02:33:14.886Z,0.83
2018-03-23T02:35:42.481Z,0.79
2018-03-23T02:38:10.099Z,0.78
2018-03-23T02:40:37.679Z,0.78
2018-03-23T02:43:05.270Z,0.79
2018-03-23T02:45:32.885Z,0.79
2018-03-23T02:48:00.471Z,0.75
2018-03-23T02:50:28.058Z,0.69
2018-03-23T02:52:55.709Z,0.72
2018-03-23T02:55:23.291Z,0.60
2018-03-23T02:57:50.878Z,0.64
2018-03-23T03:00:18.499Z,0.70
2018-03-23T03:02:46.087Z,0.68
2018-03-23T03:05:13.679Z,0.72
2018-03-23T03:07:41.311Z,0.70
2018-03-23T03:10:08.892Z,0.68
2018-03-23T03:12:36.474Z,0.64
2018-03-23T03:15:04.141Z,0.51
2018-03-23T03:17:31.721Z,0.50
2018-03-23T03:19:59.285Z,0.43
2018-03-23T03:22:26.894Z,0.28
2018-03-23T03:24:54.476Z,0.18
2018-03-23T03:27:22.056Z,0.21
2018-03-23T03:29:49.678Z,0.17
2018-03-23T03:32:17.253Z,0.09
2018-03-23T03:34:44.831Z,0.08
2018-03-23T03:37:12.440Z,0.01
2018-03-23T03:39:40.014Z,0.00
2018-03-23T03:42:07.598Z,-0.09
2018-03-23T03:44:35.218Z,-0.08
2018-03-23T03:47:02.798Z,-0.26
2018-03-23T03:49:30.427Z,-0.17
2018-03-23T03:51:58.033Z,-0.15
2018-03-23T03:54:25.610Z,-0.18
2018-03-23T03:56:53.182Z,-0.24
2018-03-23T03:59:20.799Z,-0.28
2018-03-23T04:01:48.377Z,-0.29
2018-03-23T04:04:15.966Z,-0.46
2018-03-23T04:06:43.579Z,-0.49
2018-03-23T04:09:11.152Z,-0.45
2018-03-23T04:11:38.741Z,-0.48
2018-03-23T04:14:06.353Z,-0.57
2018-03-23T04:16:33.934Z,-0.53
2018-03-23T04:19:01.519Z,-0.45
2018-03-23T04:21:29.146Z,-0.41
2018-03-23T04:23:56.729Z,-0.35
2018-03-23T04:26:24.310Z,-0.37
2018-03-23T04:28:51.929Z,-0.36
2018-03-23T04:31:19.498Z,-0.46
2018-03-23T04:33:47.090Z,-0.46
2018-03-23T04:36:14.720Z,-0.59
2018-03-23T04:38:42.319Z,-0.75
2018-03-23T04:41:09.901Z,-0.67
2018-03-23T04:43:37.526Z,-0.61
2018-03-23T04:46:05.152Z,-0.67
2018-03-23T04:48:32.735Z,-0.81
2018-03-23T04:51:00.349Z,-0.67
2018-03-23T04:53:27.952Z,-0.65
2018-03-23T04:55:55.545Z,-0.63
2018-03-23T04:58:23.174Z,-0.70
2018-03-23T05:00:50.757Z,-0.61
2018-03-23T05:03:18.359Z,-0.46
2018-03-23T05:05:45.972Z,-0.47
2018-03-23T05:08:13.569Z,-0.50
2018-03-23T05:10:41.157Z,-0.53
2018-03-23T05:13:08.769Z,-0.46
2018-03-23T05:15:36.360Z,-0.44
2018-03-23T05:18:03.937Z,-0.31
2018-03-23T05:20:31.562Z,-0.20
2018-03-23T05:22:59.124Z,-0.12
2018-03-23T05:25:26.706Z,-0.02
2018-03-23T05:27:54.326Z,0.03
2018-03-23T05:30:21.913Z,0.11
2018-03-23T05:32:49.502Z,0.17
2018-03-23T05:35:17.116Z,0.31
2018-03-23T05:37:44.699Z,0.34
2018-03-23T05:40:12.274Z,0.39
2018-03-23T05:42:39.890Z,0.47
2018-03-23T05:45:07.472Z,0.59
2018-03-23T05:47:35.049Z,0.56
2018-03-23T05:50:02.661Z,0.61
2018-03-23T05:52:30.370Z,0.50
2018-03-23T05:54:58.003Z,0.47
2018-03-23T05:57:25.634Z,0.35
2018-03-23T05:59:53.299Z,0.37
2018-03-23T06:02:20.867Z,0.51
2018-03-23T06:04:48.510Z,0.64
2018-03-23T06:07:16.098Z,0.67
2018-03-23T06:09:43.670Z,0.58
2018-03-23T06:12:11.285Z,0.51
2018-03-23T06:14:38.868Z,0.46
2018-03-23T06:17:06.550Z,0.46
2018-03-23T06:19:34.164Z,0.44
2018-03-23T06:22:01.742Z,0.41
2018-03-23T06:24:29.328Z,0.42
2018-03-23T06:26:56.923Z,0.38
2018-03-23T06:29:24.497Z,0.39
2018-03-23T06:31:52.073Z,0.32
2018-03-23T06:34:19.694Z,0.25
2018-03-23T06:36:47.274Z,0.25
2018-03-23T06:39:14.871Z,0.29
2018-03-23T06:41:42.490Z,0.23
2018-03-23T06:44:10.121Z,0.45
2018-03-23T06:46:38.622Z,0.25
2018-03-23T06:49:06.239Z,0.55
2018-03-23T06:51:33.825Z,0.49
2018-03-23T06:54:01.586Z,0.59
2018-03-23T06:56:29.203Z,0.71
2018-03-23T06:58:56.795Z,1.02
2018-03-23T07:01:24.385Z,1.34
2018-03-23T07:03:52.029Z,1.25
2018-03-23T07:06:19.613Z,1.44
2018-03-23T07:08:47.198Z,1.58
2018-03-23T07:11:14.837Z,1.80
2018-03-23T07:13:42.414Z,1.96
2018-03-23T07:16:10.100Z,1.98
2018-03-23T07:18:37.774Z,1.94
2018-03-23T07:21:06.286Z,1.94
2018-03-23T07:23:33.868Z,1.70
2018-03-23T07:26:01.500Z,1.57
2018-03-23T07:28:29.092Z,1.61
2018-03-23T07:30:56.694Z,1.63
2018-03-23T07:33:24.327Z,1.57
2018-03-23T07:35:51.923Z,1.40
2018-03-23T07:38:19.510Z,1.09
2018-03-23T07:40:47.141Z,1.37
2018-03-23T07:43:14.734Z,1.66
2018-03-23T07:45:42.383Z,1.83
2018-03-23T07:48:10.004Z,1.96
2018-03-23T07:50:37.597Z,1.96
2018-03-23T07:53:05.186Z,1.86
2018-03-23T07:55:32.810Z,1.97
2018-03-23T07:58:00.394Z,2.16
2018-03-23T08:00:27.987Z,2.26
2018-03-23T08:02:55.611Z,2.41
2018-03-23T08:05:23.198Z,2.36
2018-03-23T08:07:50.773Z,2.46
2018-03-23T08:10:18.402Z,2.74
2018-03-23T08:12:46.106Z,2.79
2018-03-23T08:15:13.710Z,2.75
2018-03-23T08:17:41.332Z,2.58
2018-03-23T08:20:08.949Z,2.40
2018-03-23T08:22:36.580Z,2.57
2018-03-23T08:25:04.209Z,2.58
2018-03-23T08:27:31.791Z,2.69
2018-03-23T08:29:59.384Z,2.74
2018-03-23T08:32:27.055Z,2.65
2018-03-23T08:34:54.650Z,2.65
2018-03-23T08:37:22.307Z,2.50
2018-03-23T08:39:49.965Z,2.42
2018-03-23T08:42:17.562Z,2.55
2018-03-23T08:44:45.246Z,2.76
2018-03-23T08:47:12.876Z,3.10
2018-03-23T08:49:40.470Z,3.39
2018-03-23T08:52:08.644Z,3.44
2018-03-23T08:54:36.266Z,3.43
2018-03-23T08:57:03.858Z,2.87
2018-03-23T08:59:31.492Z,3.01
2018-03-23T09:01:59.121Z,3.34
2018-03-23T09:04:26.696Z,3.41
2018-03-23T09:06:54.299Z,3.41
2018-03-23T09:09:21.984Z,3.20
2018-03-23T09:11:49.569Z,2.83
2018-03-23T09:14:17.149Z,3.05
2018-03-23T09:16:44.796Z,3.39
2018-03-23T09:19:12.390Z,3.53
2018-03-23T09:21:39.981Z,3.53
2018-03-23T09:24:07.614Z,3.45
2018-03-23T09:26:35.245Z,3.66
2018-03-23T09:29:02.832Z,3.52
2018-03-23T09:31:30.462Z,3.46
2018-03-23T09:33:58.076Z,3.39
2018-03-23T09:36:25.682Z,3.66
2018-03-23T09:38:53.349Z,3.44
2018-03-23T09:41:20.969Z,3.53
2018-03-23T09:43:48.610Z,3.62
2018-03-23T09:46:16.257Z,3.66
2018-03-23T09:48:43.903Z,3.47
2018-03-23T09:51:11.471Z,3.68
2018-03-23T09:53:39.083Z,4.19
2018-03-23T09:56:06.672Z,4.38
2018-03-23T09:58:34.256Z,4.60
2018-03-23T10:01:01.955Z,4.70
2018-03-23T10:03:29.558Z,4.77
2018-03-23T10:05:57.169Z,4.67
2018-03-23T10:08:24.796Z,4.85
2018-03-23T10:10:52.378Z,4.70
2018-03-23T10:13:19.986Z,4.65
2018-03-23T10:15:47.617Z,4.36
2018-03-23T10:18:15.201Z,4.89
2018-03-23T10:20:42.793Z,5.14
2018-03-23T10:23:10.405Z,5.11
2018-03-23T10:25:37.984Z,5.04
2018-03-23T10:28:05.555Z,4.93
2018-03-23T10:30:33.166Z,4.74
2018-03-23T10:33:00.760Z,4.40
2018-03-23T10:35:28.572Z,4.68
2018-03-23T10:37:56.380Z,4.50
2018-03-23T10:40:24.037Z,4.40
2018-03-23T10:42:51.620Z,4.28
2018-03-23T10:45:19.380Z,3.96
2018-03-23T10:47:46.962Z,4.53
2018-03-23T10:50:14.692Z,4.82
2018-03-23T10:52:42.535Z,4.84
2018-03-23T10:55:10.113Z,5.04
2018-03-23T10:57:37.693Z,4.61
2018-03-23T11:00:05.405Z,4.09
2018-03-23T11:02:43.029Z,3.93
2018-03-23T11:05:10.655Z,4.67
2018-03-23T11:07:38.233Z,5.14
2018-03-23T11:10:05.814Z,5.23
2018-03-23T11:12:33.432Z,5.38
2018-03-23T11:15:01.054Z,5.12
2018-03-23T11:17:28.634Z,5.38
2018-03-23T11:19:56.234Z,5.41
2018-03-23T11:22:23.818Z,5.27
2018-03-23T11:24:51.586Z,5.64
2018-03-23T11:27:19.199Z,5.53
2018-03-23T11:29:46.926Z,5.15
2018-03-23T11:32:14.571Z,5.61
2018-03-23T11:34:42.185Z,6.16
2018-03-23T11:37:09.760Z,6.71
2018-03-23T11:39:37.322Z,7.06
2018-03-23T11:42:04.931Z,7.24
2018-03-23T11:44:32.493Z,6.30
2018-03-23T11:47:00.086Z,6.12
2018-03-23T11:49:27.693Z,6.17
2018-03-23T11:51:55.297Z,6.91
2018-03-23T11:54:22.869Z,7.13
2018-03-23T11:56:50.614Z,6.73
2018-03-23T11:59:18.350Z,7.10
2018-03-23T12:01:45.923Z,7.32
2018-03-23T12:04:13.631Z,8.17
2018-03-23T12:06:41.206Z,7.75
2018-03-23T12:09:08.770Z,7.48
2018-03-23T12:11:36.383Z,7.60
2018-03-23T12:14:04.123Z,7.67
2018-03-23T12:16:31.701Z,7.98
2018-03-23T12:18:59.441Z,8.51
2018-03-23T12:21:27.054Z,8.46
2018-03-23T12:23:54.771Z,7.71
2018-03-23T12:26:22.368Z,8.33
2018-03-23T12:28:50.305Z,7.54
2018-03-23T12:31:17.954Z,8.03
2018-03-23T12:33:45.556Z,8.38
2018-03-23T12:36:13.142Z,8.09
2018-03-23T12:38:40.706Z,7.76
2018-03-23T12:41:08.315Z,7.51
2018-03-23T12:43:35.919Z,7.37
2018-03-23T12:46:03.516Z,6.91
2018-03-23T12:48:31.113Z,6.59
2018-03-23T12:50:58.750Z,6.42
2018-03-23T12:53:26.320Z,6.50
2018-03-23T12:55:53.924Z,6.83
2018-03-23T12:58:21.502Z,6.66
2018-03-23T13:00:49.294Z,6.74
2018-03-23T13:03:16.899Z,6.91
2018-03-23T13:05:44.458Z,6.86
2018-03-23T13:08:12.015Z,7.05
2018-03-23T13:10:39.681Z,6.14
2018-03-23T13:13:07.254Z,5.76
2018-03-23T13:15:34.831Z,6.11
2018-03-23T13:18:02.435Z,5.87
2018-03-23T13:20:30.000Z,6.39
2018-03-23T13:22:57.573Z,5.63
2018-03-23T13:25:25.192Z,5.59
2018-03-23T13:27:52.776Z,5.59
2018-03-23T13:30:20.367Z,5.31
2018-03-23T13:32:47.988Z,5.37
2018-03-23T13:35:15.565Z,4.97
2018-03-23T13:37:43.129Z,5.30
2018-03-23T13:40:10.736Z,4.96
2018-03-23T13:42:38.302Z,4.51
2018-03-23T13:45:05.878Z,4.46
2018-03-23T13:47:33.483Z,4.50
2018-03-23T13:50:01.070Z,4.59
2018-03-23T13:52:28.650Z,4.43
2018-03-23T13:54:56.255Z,4.80
2018-03-23T13:57:23.838Z,4.14
2018-03-23T13:59:57.050Z,4.43
2018-03-23T14:02:24.633Z,4.63
2018-03-23T14:04:52.254Z,4.58
2018-03-23T14:07:19.873Z,4.19
2018-03-23T14:09:47.454Z,4.37
2018-03-23T14:12:15.026Z,4.44
2018-03-23T14:14:43.602Z,4.64
2018-03-23T14:17:11.186Z,4.21
2018-03-23T14:19:38.778Z,3.93
2018-03-23T14:22:06.385Z,3.72
2018-03-23T14:24:33.969Z,3.62
2018-03-23T14:27:01.555Z,3.71
2018-03-23T14:29:29.174Z,3.71
2018-03-23T14:31:56.765Z,3.64
2018-03-23T14:34:24.353Z,3.76
2018-03-23T14:36:51.970Z,3.76
2018-03-23T14:39:19.564Z,3.71
2018-03-23T14:41:47.154Z,3.60
2018-03-23T14:44:14.810Z,3.53
2018-03-23T14:46:42.425Z,3.31
2018-03-23T14:49:10.000Z,3.03
2018-03-23T14:51:37.666Z,2.91
2018-03-23T14:54:05.258Z,3.02
2018-03-23T14:56:32.842Z,3.00
2018-03-23T14:59:05.874Z,3.03
2018-03-23T15:01:33.450Z,2.70
2018-03-23T15:04:01.035Z,2.55
2018-03-23T15:06:28.669Z,2.54
2018-03-23T15:08:56.241Z,2.48
2018-03-23T15:11:23.811Z,2.48
2018-03-23T15:13:51.462Z,2.59
2018-03-23T15:16:19.042Z,2.46
2018-03-23T15:18:46.635Z,2.27
2018-03-23T15:21:14.263Z,2.20
2018-03-23T15:23:41.910Z,2.16
2018-03-23T15:26:09.494Z,2.07
2018-03-23T15:28:37.174Z,2.02
2018-03-23T15:31:04.775Z,1.91
2018-03-23T15:33:32.353Z,1.91
2018-03-23T15:35:59.974Z,1.70
2018-03-23T15:38:27.571Z,1.83
2018-03-23T15:40:55.190Z,1.81
2018-03-23T15:43:22.815Z,1.82
2018-03-23T15:45:50.398Z,1.71
2018-03-23T15:48:17.999Z,1.49
2018-03-23T15:50:45.600Z,1.41
2018-03-23T15:53:13.190Z,1.38
2018-03-23T15:55:40.782Z,1.38
2018-03-23T15:58:08.540Z,1.43
2018-03-23T16:00:36.135Z,1.48
2018-03-23T16:03:03.759Z,1.40
2018-03-23T16:05:31.760Z,1.38
2018-03-23T16:07:59.365Z,1.32
2018-03-23T16:10:26.958Z,1.26
2018-03-23T16:12:54.588Z,1.20
2018-03-23T16:15:22.183Z,1.17
2018-03-23T16:17:49.773Z,1.09
2018-03-23T16:20:17.406Z,1.06
2018-03-23T16:22:44.994Z,1.07
2018-03-23T16:25:12.573Z,1.17
2018-03-23T16:27:40.235Z,1.16
2018-03-23T16:30:07.822Z,1.21
2018-03-23T16:32:35.403Z,1.10
2018-03-23T16:35:03.036Z,1.02
2018-03-23T16:37:30.655Z,0.96
2018-03-23T16:39:58.317Z,0.92
2018-03-23T16:42:25.928Z,0.95
2018-03-23T16:44:53.499Z,0.94
2018-03-23T16:47:21.090Z,1.01
2018-03-23T16:49:48.705Z,1.02
2018-03-23T16:52:16.298Z,0.97
2018-03-23T16:54:43.925Z,0.91
2018-03-23T16:57:11.642Z,1.00
2018-03-23T16:59:39.224Z,1.03
2018-03-23T17:02:06.809Z,1.09
2018-03-23T17:04:34.447Z,1.03
2018-03-23T17:07:02.035Z,1.07
2018-03-23T17:09:29.639Z,0.97
2018-03-23T17:11:57.266Z,1.03
2018-03-23T17:14:24.896Z,0.99
2018-03-23T17:16:52.509Z,1.03
2018-03-23T17:19:20.129Z,1.07
2018-03-23T17:21:47.860Z,1.11
2018-03-23T17:24:15.506Z,1.18
2018-03-23T17:26:43.123Z,1.21
2018-03-23T17:29:11.033Z,1.18
2018-03-23T17:31:38.694Z,1.16
2018-03-23T17:34:06.373Z,1.18
2018-03-23T17:36:34.022Z,1.11
2018-03-23T17:39:01.594Z,1.17
2018-03-23T17:41:29.360Z,1.23
2018-03-23T17:43:56.947Z,1.21
2018-03-23T17:46:24.670Z,1.13
2018-03-23T17:48:52.351Z,1.02
2018-03-23T17:51:19.906Z,0.98
2018-03-23T17:53:47.647Z,1.01
2018-03-23T17:56:15.272Z,1.06
2018-03-23T17:58:42.880Z,1.05
2018-03-23T18:01:10.640Z,1.05
2018-03-23T18:03:38.233Z,1.01
2018-03-23T18:06:05.803Z,1.06
2018-03-23T18:08:33.430Z,1.10
2018-03-23T18:11:01.096Z,1.11
2018-03-23T18:13:28.765Z,1.14
2018-03-23T18:15:56.342Z,1.14
2018-03-23T18:18:24.086Z,1.18
2018-03-23T18:20:51.662Z,1.21
2018-03-23T18:23:19.237Z,1.21
2018-03-23T18:25:46.866Z,1.31
2018-03-23T18:28:14.547Z,1.30
2018-03-23T18:30:42.190Z,1.32
2018-03-23T18:33:09.831Z,1.32
2018-03-23T18:35:37.520Z,1.26
2018-03-23T18:38:05.167Z,1.31
2018-03-23T18:40:32.767Z,1.28
2018-03-23T18:43:00.339Z,1.14
2018-03-23T18:45:27.910Z,1.12
2018-03-23T18:47:55.606Z,1.07
2018-03-23T18:50:23.179Z,1.04
2018-03-23T18:52:50.934Z,1.00
2018-03-23T18:55:18.603Z,0.87
2018-03-23T18:57:46.277Z,0.88
2018-03-23T19:00:13.886Z,1.02
2018-03-23T19:02:41.592Z,1.12
2018-03-23T19:05:09.251Z,1.13
2018-03-23T19:07:36.910Z,1.13
2018-03-23T19:10:04.557Z,1.08
2018-03-23T19:12:32.151Z,1.10
2018-03-23T19:14:59.907Z,1.08
2018-03-23T19:17:27.525Z,1.09
2018-03-23T19:19:55.109Z,1.12
2018-03-23T19:22:22.672Z,1.09
2018-03-23T19:24:50.330Z,1.06
2018-03-23T19:27:17.892Z,1.11
2018-03-23T19:29:45.692Z,0.99
2018-03-23T19:32:13.302Z,0.95
2018-03-23T19:34:40.869Z,1.00
2018-03-23T19:37:08.439Z,1.03
2018-03-23T19:39:36.114Z,1.03
2018-03-23T19:42:03.677Z,1.00
2018-03-23T19:44:31.264Z,1.03
2018-03-23T19:46:58.866Z,0.87
2018-03-23T19:49:26.435Z,0.95
2018-03-23T19:51:54.039Z,1.00
2018-03-23T19:54:21.694Z,1.09
2018-03-23T19:56:49.324Z,1.07
2018-03-23T19:59:17.052Z,1.19
2018-03-23T20:01:44.683Z,1.19
2018-03-23T20:04:12.273Z,1.18
2018-03-23T20:06:39.848Z,1.17
2018-03-23T20:09:07.462Z,1.20
2018-03-23T20:11:35.045Z,1.20
2018-03-23T20:14:08.231Z,1.19
2018-03-23T20:16:35.813Z,1.11
2018-03-23T20:19:03.397Z,1.14
2018-03-23T20:21:30.995Z,1.11
2018-03-23T20:27:13.400Z,1.12
2018-03-23T20:29:40.966Z,1.10
2018-03-23T20:32:14.228Z,1.17
2018-03-23T20:34:41.822Z,1.22
2018-03-23T20:37:09.383Z,1.30
2018-03-23T20:39:36.972Z,1.36
2018-03-23T20:42:04.541Z,1.32
2018-03-23T20:44:32.138Z,1.33
2018-03-23T20:46:59.755Z,1.34
2018-03-23T20:49:27.322Z,1.35
2018-03-23T20:51:54.894Z,1.33
2018-03-23T20:54:22.520Z,1.31
2018-03-23T20:56:50.123Z,1.28
2018-03-23T20:59:17.762Z,1.25
2018-03-23T21:01:45.357Z,1.25
2018-03-23T21:04:12.934Z,1.20
2018-03-23T21:06:40.526Z,1.13
2018-03-23T21:09:08.138Z,1.21
2018-03-23T21:11:35.698Z,1.25
2018-03-23T21:14:03.306Z,1.33
2018-03-23T21:16:30.923Z,1.37
2018-03-23T21:18:58.528Z,1.34
2018-03-23T21:21:26.222Z,1.32
2018-03-23T21:23:53.830Z,1.31
2018-03-23T21:26:21.411Z,1.33
2018-03-23T21:28:48.990Z,1.35
2018-03-23T21:31:16.605Z,1.35
2018-03-23T21:33:44.200Z,1.39
2018-03-23T21:36:11.772Z,1.40
2018-03-23T21:38:39.422Z,1.41
2018-03-23T21:41:06.997Z,1.42
2018-03-23T21:43:34.569Z,1.46
2018-03-23T21:46:02.176Z,1.43
2018-03-23T21:48:29.756Z,1.40
2018-03-23T21:50:57.321Z,1.39
2018-03-23T21:53:24.931Z,1.39
2018-03-23T21:55:52.505Z,1.29
2018-03-23T21:58:20.087Z,1.27
2018-03-23T22:00:47.684Z,1.24
2018-03-23T22:03:15.234Z,1.25
2018-03-23T22:05:42.818Z,1.28
2018-03-23T22:08:10.418Z,1.31
2018-03-23T22:10:38.031Z,1.33
2018-03-23T22:13:05.583Z,1.30
2018-03-23T22:15:33.187Z,1.34
2018-03-23T22:18:00.746Z,1.29
2018-03-23T22:20:28.316Z,1.29
2018-03-23T22:22:55.905Z,1.24
2018-03-23T22:25:23.471Z,1.05
2018-03-23T22:27:51.044Z,1.25
2018-03-23T22:30:18.649Z,1.29
2018-03-23T22:32:46.226Z,1.25
2018-03-23T22:35:13.796Z,1.07
2018-03-23T22:37:41.411Z,1.10
2018-03-23T22:40:09.002Z,1.11
2018-03-23T22:42:36.585Z,1.14
2018-03-23T22:45:04.229Z,1.21
2018-03-23T22:47:31.816Z,1.28
2018-03-23T22:49:59.390Z,1.28
2018-03-23T22:52:27.002Z,1.15
2018-03-23T22:54:54.867Z,1.16
2018-03-23T22:57:22.541Z,1.18
2018-03-23T22:59:50.170Z,1.20
2018-03-23T23:02:17.759Z,1.18
2018-03-23T23:04:45.342Z,1.21
2018-03-23T23:07:12.949Z,1.10
2018-03-23T23:09:40.548Z,1.09
2018-03-23T23:12:08.518Z,1.05
2018-03-23T23:14:36.144Z,1.05
2018-03-23T23:17:03.726Z,1.01
2018-03-23T23:19:31.359Z,0.96
2018-03-23T23:21:59.002Z,0.98
2018-03-23T23:24:26.587Z,0.54
2018-03-23T23:26:54.169Z,0.72
2018-03-23T23:29:21.838Z,0.55
2018-03-23T23:31:49.417Z,0.46
2018-03-23T23:34:17.005Z,0.53
2018-03-23T23:36:44.623Z,0.49
2018-03-23T23:39:12.215Z,0.44
2018-03-23T23:41:39.805Z,0.54
2018-03-23T23:44:07.428Z,0.53
2018-03-23T23:46:35.021Z,0.54
2018-03-23T23:49:02.611Z,0.60
2018-03-23T23:51:30.242Z,0.65
2018-03-23T23:53:57.829Z,0.59
2018-03-23T23:56:25.407Z,0.65
2018-03-23T23:58:53.031Z,0.70
